createdAt,value
2019-06-08T00:01:52.422Z,47.90
2019-06-08T00:04:20.672Z,47.60
2019-06-08T00:06:47.509Z,47.70
2019-06-08T00:09:14.749Z,47.40
2019-06-08T00:11:42.274Z,47.10
2019-06-08T00:14:09.313Z,47.20
2019-06-08T00:16:49.873Z,47.00
2019-06-08T00:19:17.425Z,46.80
2019-06-08T00:21:44.291Z,47.40
2019-06-08T00:24:11.110Z,47.40
2019-06-08T00:26:37.911Z,47.50
2019-06-08T00:29:04.722Z,48.30
2019-06-08T00:31:31.553Z,48.80
2019-06-08T00:33:58.375Z,49.90
2019-06-08T00:36:25.174Z,50.60
2019-06-08T00:38:52.606Z,49.40
2019-06-08T00:41:20.652Z,48.90
2019-06-08T00:43:48.389Z,48.80
2019-06-08T00:46:15.275Z,48.60
2019-06-08T00:48:43.206Z,48.80
2019-06-08T00:51:10.208Z,52.70
2019-06-08T00:53:37.584Z,56.80
2019-06-08T00:56:04.393Z,59.00
2019-06-08T00:58:31.187Z,59.30
2019-06-08T01:00:58.327Z,59.90
2019-06-08T01:03:25.831Z,60.50
2019-06-08T01:05:52.904Z,60.10
2019-06-08T01:08:21.711Z,58.30
2019-06-08T01:10:49.089Z,57.10
2019-06-08T01:13:16.142Z,57.20
2019-06-08T01:15:42.974Z,57.20
2019-06-08T01:18:09.799Z,56.90
2019-06-08T01:20:36.665Z,56.30
2019-06-08T01:23:03.690Z,57.50
2019-06-08T01:25:30.592Z,58.20
2019-06-08T01:27:57.308Z,58.70
2019-06-08T01:30:24.647Z,58.20
2019-06-08T01:32:51.445Z,58.30
2019-06-08T01:35:18.243Z,58.50
2019-06-08T01:37:45.452Z,57.20
2019-06-08T01:40:13.526Z,57.70
2019-06-08T01:42:40.346Z,58.60
2019-06-08T01:45:08.036Z,60.00
2019-06-08T01:47:34.851Z,61.30
2019-06-08T01:50:01.640Z,61.50
2019-06-08T01:52:28.880Z,59.70
2019-06-08T01:54:55.834Z,60.80
2019-06-08T01:57:23.129Z,61.90
2019-06-08T01:59:50.153Z,61.50
2019-06-08T02:02:16.945Z,60.70
2019-06-08T02:04:43.762Z,59.40
2019-06-08T02:07:10.618Z,58.90
2019-06-08T02:09:37.715Z,59.10
2019-06-08T02:12:04.567Z,60.30
2019-06-08T02:14:33.153Z,57.80
2019-06-08T02:17:00.078Z,56.40
2019-06-08T02:19:26.869Z,56.50
2019-06-08T02:21:53.801Z,56.10
2019-06-08T02:24:20.786Z,55.90
2019-06-08T02:26:47.569Z,55.00
2019-06-08T02:29:14.458Z,54.90
2019-06-08T02:31:42.011Z,54.70
2019-06-08T02:34:09.756Z,55.40
2019-06-08T02:36:37.849Z,55.10
2019-06-08T02:39:07.006Z,54.00
2019-06-08T02:41:35.295Z,54.50
2019-06-08T02:44:03.713Z,55.60
2019-06-08T02:46:31.006Z,55.70
2019-06-08T02:49:04.261Z,56.70
2019-06-08T02:51:28.742Z,57.60
2019-06-08T02:53:57.002Z,58.80
2019-06-08T02:56:27.017Z,58.90
2019-06-08T02:58:57.823Z,59.40
2019-06-08T03:01:26.019Z,60.00
2019-06-08T03:03:55.094Z,59.70
2019-06-08T03:06:23.737Z,58.90
2019-06-08T03:08:53.925Z,58.60
2019-06-08T03:11:20.726Z,59.20
2019-06-08T03:13:49.345Z,60.10
2019-06-08T03:16:16.368Z,60.30
2019-06-08T03:18:43.151Z,60.90
2019-06-08T03:21:10.017Z,61.20
2019-06-08T03:23:38.612Z,61.20
2019-06-08T03:26:05.543Z,61.20
2019-06-08T03:28:34.936Z,60.40
2019-06-08T03:31:01.454Z,61.40
2019-06-08T03:33:28.327Z,61.40
2019-06-08T03:35:58.111Z,59.60
2019-06-08T03:38:24.103Z,59.10
2019-06-08T03:40:51.009Z,59.00
2019-06-08T03:43:18.135Z,58.30
2019-06-08T03:45:45.373Z,56.20
2019-06-08T03:48:12.546Z,54.90
2019-06-08T03:50:41.324Z,54.90
2019-06-08T03:53:08.478Z,54.20
2019-06-08T03:55:35.674Z,53.00
2019-06-08T03:58:02.466Z,53.50
2019-06-08T04:00:29.253Z,52.60
2019-06-08T04:02:56.099Z,52.80
2019-06-08T04:05:23.493Z,52.50
2019-06-08T04:07:50.557Z,53.60
2019-06-08T04:10:17.544Z,53.00
2019-06-08T04:12:46.165Z,53.60
2019-06-08T04:15:13.867Z,53.10
2019-06-08T04:17:42.193Z,53.60
2019-06-08T04:20:12.112Z,54.60
2019-06-08T04:22:44.751Z,54.60
2019-06-08T04:25:12.940Z,52.70
2019-06-08T04:27:40.382Z,53.00
2019-06-08T04:30:09.915Z,53.50
2019-06-08T04:32:38.507Z,52.70
2019-06-08T04:35:07.673Z,52.30
2019-06-08T04:37:34.470Z,52.30
2019-06-08T04:40:01.707Z,51.80
2019-06-08T04:42:28.496Z,50.70
2019-06-08T04:44:55.294Z,50.80
2019-06-08T04:47:22.212Z,50.20
2019-06-08T04:49:49.033Z,49.40
2019-06-08T04:52:15.889Z,48.80
2019-06-08T04:54:42.726Z,49.90
2019-06-08T04:57:09.547Z,49.70
2019-06-08T04:59:36.360Z,49.00
2019-06-08T05:02:03.393Z,48.60
2019-06-08T05:04:30.535Z,48.70
2019-06-08T05:06:57.331Z,48.50
2019-06-08T05:09:24.167Z,48.60
2019-06-08T05:11:51.402Z,50.00
2019-06-08T05:14:18.253Z,51.60
2019-06-08T05:16:45.369Z,50.00
2019-06-08T05:19:12.241Z,51.00
2019-06-08T05:21:39.509Z,50.90
2019-06-08T05:24:06.976Z,52.10
2019-06-08T05:26:33.779Z,50.30
2019-06-08T05:29:00.590Z,51.10
2019-06-08T05:31:27.508Z,50.90
2019-06-08T05:33:54.311Z,52.60
2019-06-08T05:36:21.150Z,54.40
2019-06-08T05:38:48.011Z,53.20
2019-06-08T05:41:14.787Z,52.00
2019-06-08T05:43:41.709Z,51.10
2019-06-08T05:46:08.706Z,50.80
2019-06-08T05:48:35.499Z,50.80
2019-06-08T05:51:04.291Z,51.60
2019-06-08T05:53:31.907Z,51.80
2019-06-08T05:55:58.726Z,51.10
2019-06-08T05:58:25.586Z,50.30
2019-06-08T06:00:52.607Z,49.90
2019-06-08T06:03:19.409Z,50.10
2019-06-08T06:05:46.533Z,49.30
2019-06-08T06:08:18.750Z,51.10
2019-06-08T06:10:42.864Z,51.80
2019-06-08T06:13:10.085Z,52.70
2019-06-08T06:15:37.380Z,51.60
2019-06-08T06:18:04.200Z,50.80
2019-06-08T06:20:31.422Z,50.90
2019-06-08T06:22:58.702Z,50.70
2019-06-08T06:25:26.013Z,50.30
2019-06-08T06:27:53.015Z,49.70
2019-06-08T06:30:20.170Z,49.30
2019-06-08T06:32:47.778Z,49.60
2019-06-08T06:35:14.984Z,48.80
2019-06-08T06:37:42.031Z,48.20
2019-06-08T06:40:10.339Z,48.00
2019-06-08T06:42:37.267Z,47.90
2019-06-08T06:45:08.556Z,48.10
2019-06-08T06:47:35.362Z,48.00
2019-06-08T06:50:07.558Z,47.90
2019-06-08T06:52:34.746Z,47.50
2019-06-08T06:55:01.712Z,47.90
2019-06-08T06:57:28.553Z,47.80
2019-06-08T06:59:55.531Z,47.80
2019-06-08T07:02:22.444Z,47.80
2019-06-08T07:04:49.990Z,47.70
2019-06-08T07:07:17.101Z,47.40
2019-06-08T07:09:44.386Z,47.80
2019-06-08T07:12:11.297Z,47.60
2019-06-08T07:14:38.187Z,47.60
2019-06-08T07:17:05.069Z,47.40
2019-06-08T07:19:32.806Z,47.40
2019-06-08T07:21:59.634Z,47.60
2019-06-08T07:24:26.661Z,47.60
2019-06-08T07:26:54.546Z,47.40
2019-06-08T07:29:21.674Z,47.20
2019-06-08T07:31:50.015Z,47.00
2019-06-08T07:34:17.397Z,46.80
2019-06-08T07:36:44.521Z,46.70
2019-06-08T07:39:11.321Z,46.70
2019-06-08T07:41:38.111Z,46.40
2019-06-08T07:44:05.429Z,46.50
2019-06-08T07:46:32.847Z,46.50
2019-06-08T07:48:59.647Z,46.20
2019-06-08T07:51:26.652Z,46.20
2019-06-08T07:53:53.630Z,46.10
2019-06-08T07:56:20.467Z,46.10
2019-06-08T07:58:49.545Z,46.10
2019-06-08T08:01:16.052Z,46.00
2019-06-08T08:03:42.989Z,46.00
2019-06-08T08:06:09.828Z,46.00
2019-06-08T08:08:36.613Z,46.10
2019-06-08T08:11:03.757Z,46.10
2019-06-08T08:13:31.916Z,46.00
2019-06-08T08:15:59.376Z,46.10
2019-06-08T08:18:27.401Z,46.20
2019-06-08T08:20:55.835Z,46.20
2019-06-08T08:23:23.234Z,45.90
2019-06-08T08:25:51.395Z,46.10
2019-06-08T08:28:18.365Z,46.30
2019-06-08T08:30:45.148Z,46.20
2019-06-08T08:33:12.338Z,46.20
2019-06-08T08:35:39.448Z,46.00
2019-06-08T08:38:07.532Z,46.00
2019-06-08T08:40:34.850Z,46.10
2019-06-08T08:43:01.774Z,45.80
2019-06-08T08:45:28.886Z,45.90
2019-06-08T08:48:10.383Z,46.10
2019-06-08T08:50:24.496Z,46.10
2019-06-08T08:52:52.276Z,46.00
2019-06-08T08:55:20.544Z,45.80
2019-06-08T08:57:48.423Z,46.10
2019-06-08T09:00:18.110Z,46.20
2019-06-08T09:02:45.218Z,46.00
2019-06-08T09:05:12.340Z,46.40
2019-06-08T09:07:39.169Z,46.00
2019-06-08T09:10:08.568Z,46.00
2019-06-08T09:12:37.700Z,46.00
2019-06-08T09:15:08.326Z,46.10
2019-06-08T09:17:34.580Z,46.40
2019-06-08T09:20:03.667Z,46.30
2019-06-08T09:22:31.249Z,45.90
2019-06-08T09:25:01.210Z,45.60
2019-06-08T09:27:28.103Z,45.90
2019-06-08T09:29:56.828Z,45.80
2019-06-08T09:32:23.741Z,45.70
2019-06-08T09:34:52.931Z,45.60
2019-06-08T09:37:19.317Z,46.40
2019-06-08T09:39:48.131Z,46.20
2019-06-08T09:42:20.955Z,46.60
2019-06-08T09:44:48.256Z,46.80
2019-06-08T09:47:17.935Z,46.90
2019-06-08T09:49:43.902Z,46.90
2019-06-08T09:52:10.791Z,47.10
2019-06-08T09:54:38.510Z,47.10
2019-06-08T09:57:06.782Z,46.80
2019-06-08T09:59:34.295Z,46.50
2019-06-08T10:02:07.492Z,46.40
2019-06-08T10:04:31.616Z,46.10
2019-06-08T10:07:00.674Z,46.20
2019-06-08T10:09:28.407Z,46.50
2019-06-08T10:11:58.611Z,46.80
2019-06-08T10:14:24.392Z,47.10
2019-06-08T10:16:51.475Z,47.70
2019-06-08T10:19:18.787Z,48.00
2019-06-08T10:21:48.046Z,48.00
2019-06-08T10:24:15.033Z,47.80
2019-06-08T10:26:41.843Z,48.70
2019-06-08T10:29:10.332Z,48.60
2019-06-08T10:31:43.007Z,48.50
2019-06-08T10:34:10.881Z,48.60
2019-06-08T10:36:35.191Z,48.70
2019-06-08T10:39:07.325Z,48.40
2019-06-08T10:41:32.299Z,48.30
2019-06-08T10:43:59.222Z,48.50
2019-06-08T10:46:26.321Z,48.30
2019-06-08T10:48:53.199Z,48.30
2019-06-08T10:51:20.085Z,47.80
2019-06-08T10:53:52.665Z,47.70
2019-06-08T10:56:15.834Z,47.20
2019-06-08T10:58:42.733Z,47.40
2019-06-08T11:01:12.175Z,47.20
2019-06-08T11:03:38.920Z,47.80
2019-06-08T11:06:07.564Z,48.80
2019-06-08T11:08:34.714Z,47.70
2019-06-08T11:11:02.909Z,47.60
2019-06-08T11:13:30.918Z,48.00
2019-06-08T11:16:00.053Z,48.10
2019-06-08T11:18:28.531Z,48.10
2019-06-08T11:20:57.988Z,48.10
2019-06-08T11:23:24.234Z,48.40
2019-06-08T11:25:51.346Z,48.60
2019-06-08T11:28:18.585Z,48.90
2019-06-08T11:30:47.958Z,48.30
2019-06-08T11:33:14.679Z,47.30
2019-06-08T11:35:41.476Z,47.20
2019-06-08T11:38:10.913Z,47.20
2019-06-08T11:40:37.886Z,47.20
2019-06-08T11:43:06.401Z,46.70
2019-06-08T11:45:33.467Z,46.70
2019-06-08T11:48:00.666Z,47.20
2019-06-08T11:50:42.170Z,48.20
2019-06-08T11:53:12.677Z,48.00
2019-06-08T11:55:38.478Z,46.80
2019-06-08T11:58:05.717Z,46.30
2019-06-08T12:01:01.227Z,45.90
2019-06-08T12:04:13.981Z,46.50
2019-06-08T12:06:42.158Z,45.70
2019-06-08T12:09:11.141Z,46.00
2019-06-08T12:11:38.378Z,46.80
2019-06-08T12:14:09.236Z,45.90
2019-06-08T12:16:34.795Z,46.40
2019-06-08T12:19:01.606Z,46.10
2019-06-08T12:21:29.253Z,45.20
2019-06-08T12:23:56.284Z,44.20
2019-06-08T12:26:23.106Z,42.60
2019-06-08T12:28:50.146Z,43.30
2019-06-08T12:31:21.941Z,43.90
2019-06-08T12:33:46.348Z,44.30
2019-06-08T12:36:16.923Z,44.60
2019-06-08T12:38:43.282Z,43.00
2019-06-08T12:41:12.275Z,42.60
2019-06-08T12:43:39.250Z,43.40
2019-06-08T12:46:10.661Z,43.30
2019-06-08T12:48:35.156Z,43.30
2019-06-08T12:51:02.005Z,42.70
2019-06-08T12:53:29.370Z,41.90
2019-06-08T12:55:57.931Z,42.60
2019-06-08T12:58:24.995Z,42.70
2019-06-08T13:00:51.798Z,42.60
2019-06-08T13:03:18.866Z,42.80
2019-06-08T13:05:45.987Z,43.30
2019-06-08T13:08:13.443Z,42.50
2019-06-08T13:10:41.917Z,42.70
2019-06-08T13:13:09.945Z,43.20
2019-06-08T13:15:38.455Z,43.20
2019-06-08T13:18:05.709Z,43.70
2019-06-08T13:20:32.711Z,42.80
2019-06-08T13:23:00.386Z,42.10
2019-06-08T13:25:37.523Z,40.80
2019-06-08T13:27:58.304Z,40.60
2019-06-08T13:30:26.352Z,40.50
2019-06-08T13:32:54.196Z,40.30
2019-06-08T13:35:22.504Z,39.80
2019-06-08T13:37:49.704Z,39.20
2019-06-08T13:40:20.101Z,37.60
2019-06-08T13:42:48.325Z,37.40
2019-06-08T13:45:16.208Z,36.60
2019-06-08T13:47:43.922Z,36.20
2019-06-08T13:50:12.948Z,36.20
2019-06-08T13:52:39.921Z,35.80
2019-06-08T13:55:08.946Z,35.10
2019-06-08T13:57:37.769Z,35.10
2019-06-08T14:00:10.326Z,33.90
2019-06-08T14:02:39.663Z,35.20
2019-06-08T14:05:08.211Z,33.90
2019-06-08T14:07:37.865Z,33.50
2019-06-08T14:10:07.466Z,32.70
2019-06-08T14:12:34.288Z,33.20
2019-06-08T14:15:01.238Z,32.70
2019-06-08T14:17:28.194Z,33.40
2019-06-08T14:19:55.126Z,33.70
2019-06-08T14:22:23.374Z,34.20
2019-06-08T14:24:50.982Z,33.70
2019-06-08T14:27:17.775Z,33.00
2019-06-08T14:29:44.595Z,32.30
2019-06-08T14:32:11.772Z,31.80
2019-06-08T14:34:38.871Z,32.00
2019-06-08T14:37:05.915Z,32.00
2019-06-08T14:39:32.731Z,31.80
2019-06-08T14:41:59.636Z,32.30
2019-06-08T14:44:31.356Z,32.30
2019-06-08T14:46:57.900Z,31.80
2019-06-08T14:49:29.645Z,32.10
2019-06-08T14:51:53.255Z,32.30
2019-06-08T14:54:24.427Z,32.20
2019-06-08T14:56:49.200Z,32.50
2019-06-08T14:59:18.334Z,32.30
2019-06-08T15:01:44.746Z,32.20
2019-06-08T15:04:13.576Z,32.30
2019-06-08T15:06:40.839Z,32.10
2019-06-08T15:09:08.665Z,32.10
2019-06-08T15:11:38.095Z,29.70
2019-06-08T15:14:05.143Z,31.50
2019-06-08T15:16:32.862Z,31.30
2019-06-08T15:19:00.405Z,31.10
2019-06-08T15:21:30.173Z,31.10
2019-06-08T15:23:57.876Z,31.50
2019-06-08T15:26:32.768Z,31.30
2019-06-08T15:28:53.956Z,31.70
2019-06-08T15:31:21.161Z,31.40
2019-06-08T15:33:48.397Z,31.60
2019-06-08T15:36:15.381Z,31.90
2019-06-08T15:38:42.414Z,31.50
2019-06-08T15:41:09.196Z,31.60
2019-06-08T15:43:37.647Z,30.00
2019-06-08T15:46:04.847Z,30.10
2019-06-08T15:48:32.826Z,29.70
2019-06-08T15:51:00.398Z,30.20
2019-06-08T15:53:29.669Z,29.50
2019-06-08T15:55:58.360Z,28.70
2019-06-08T15:58:27.466Z,29.30
2019-06-08T16:00:55.623Z,29.20
2019-06-08T16:03:23.254Z,29.10
2019-06-08T16:05:50.058Z,28.60
2019-06-08T16:08:16.879Z,28.30
2019-06-08T16:10:43.679Z,28.40
2019-06-08T16:13:10.489Z,27.80
2019-06-08T16:15:37.341Z,28.00
2019-06-08T16:18:04.125Z,28.00
2019-06-08T16:20:31.533Z,26.90
2019-06-08T16:22:58.595Z,27.50
2019-06-08T16:25:27.534Z,26.80
2019-06-08T16:27:54.720Z,25.90
2019-06-08T16:30:21.706Z,25.20
2019-06-08T16:32:48.766Z,25.10
2019-06-08T16:35:15.569Z,25.40
2019-06-08T16:37:42.744Z,26.10
2019-06-08T16:40:10.562Z,25.70
2019-06-08T16:42:38.564Z,24.90
2019-06-08T16:45:06.547Z,24.90
2019-06-08T16:47:33.431Z,24.50
2019-06-08T16:50:00.225Z,24.60
2019-06-08T16:52:28.338Z,23.10
2019-06-08T16:54:55.437Z,23.20
2019-06-08T16:57:22.252Z,24.20
2019-06-08T16:59:49.336Z,24.00
2019-06-08T17:02:17.073Z,23.90
2019-06-08T17:04:44.131Z,24.10
2019-06-08T17:07:11.396Z,23.90
2019-06-08T17:09:38.179Z,24.30
2019-06-08T17:12:04.959Z,23.20
2019-06-08T17:14:32.356Z,23.60
2019-06-08T17:16:59.152Z,23.30
2019-06-08T17:19:25.952Z,23.30
2019-06-08T17:21:52.923Z,23.30
2019-06-08T17:24:19.804Z,22.30
2019-06-08T17:26:46.649Z,22.10
2019-06-08T17:29:13.657Z,22.40
2019-06-08T17:31:41.387Z,21.40
2019-06-08T17:34:08.487Z,21.90
2019-06-08T17:36:36.485Z,22.30
2019-06-08T17:39:05.260Z,22.50
2019-06-08T17:41:32.326Z,22.90
2019-06-08T17:43:59.317Z,23.00
2019-06-08T17:46:26.267Z,22.30
2019-06-08T17:48:53.115Z,22.40
2019-06-08T17:51:19.909Z,22.70
2019-06-08T17:53:46.740Z,23.00
2019-06-08T17:56:13.537Z,23.00
2019-06-08T17:58:43.537Z,23.20
2019-06-08T18:01:10.340Z,23.40
2019-06-08T18:03:38.413Z,23.50
2019-06-08T18:06:07.300Z,23.70
2019-06-08T18:08:36.753Z,23.80
2019-06-08T18:11:03.222Z,23.80
2019-06-08T18:13:30.307Z,24.10
2019-06-08T18:15:57.679Z,23.40
2019-06-08T18:18:28.124Z,23.10
2019-06-08T18:20:54.663Z,22.30
2019-06-08T18:23:21.544Z,22.10
2019-06-08T18:25:49.268Z,21.80
2019-06-08T18:28:17.212Z,21.60
2019-06-08T18:30:45.103Z,22.20
2019-06-08T18:33:13.253Z,21.20
2019-06-08T18:35:41.871Z,21.40
2019-06-08T18:38:08.767Z,21.30
2019-06-08T18:40:37.934Z,21.80
2019-06-08T18:43:04.560Z,21.70
2019-06-08T18:45:31.417Z,21.80
2019-06-08T18:47:58.302Z,22.00
2019-06-08T18:50:25.228Z,20.90
2019-06-08T18:52:52.409Z,21.20
2019-06-08T18:55:19.476Z,21.10
2019-06-08T18:57:48.397Z,21.10
2019-06-08T19:00:16.285Z,21.20
2019-06-08T19:02:46.244Z,21.30
2019-06-08T19:05:12.860Z,21.60
2019-06-08T19:07:41.266Z,21.60
2019-06-08T19:10:08.769Z,21.90
2019-06-08T19:12:38.362Z,22.60
2019-06-08T19:15:08.224Z,23.40
2019-06-08T19:17:34.097Z,23.90
2019-06-08T19:20:01.006Z,24.60
2019-06-08T19:22:30.332Z,24.70
2019-06-08T19:24:56.811Z,24.70
2019-06-08T19:27:23.651Z,24.50
2019-06-08T19:29:51.749Z,24.40
2019-06-08T19:32:18.765Z,24.90
2019-06-08T19:34:53.155Z,25.10
2019-06-08T19:37:14.319Z,25.30
2019-06-08T19:39:44.145Z,25.40
2019-06-08T19:42:10.156Z,25.80
2019-06-08T19:44:38.582Z,25.70
2019-06-08T19:47:07.989Z,26.00
2019-06-08T19:49:34.573Z,26.20
2019-06-08T19:52:01.586Z,26.20
2019-06-08T19:54:28.487Z,25.60
2019-06-08T19:56:57.434Z,26.00
2019-06-08T19:59:24.254Z,26.80
2019-06-08T20:01:54.979Z,26.50
2019-06-08T20:04:19.849Z,27.70
2019-06-08T20:06:48.015Z,28.00
2019-06-08T20:09:17.280Z,28.60
2019-06-08T20:11:47.311Z,28.20
2019-06-08T20:14:12.842Z,28.70
2019-06-08T20:16:40.518Z,28.40
2019-06-08T20:19:08.070Z,25.30
2019-06-08T20:21:35.036Z,28.00
2019-06-08T20:24:03.434Z,28.10
2019-06-08T20:26:31.937Z,29.00
2019-06-08T20:29:12.165Z,24.40
2019-06-08T20:31:27.826Z,23.80
2019-06-08T20:33:57.478Z,22.80
2019-06-08T20:36:24.157Z,23.70
2019-06-08T20:38:50.996Z,21.90
2019-06-08T20:41:18.396Z,22.90
2019-06-08T20:43:49.900Z,21.10
2019-06-08T20:46:17.144Z,20.60
2019-06-08T20:48:44.222Z,21.60
2019-06-08T20:51:11.292Z,24.10
2019-06-08T20:53:38.791Z,23.90
2019-06-08T20:56:07.966Z,25.20
2019-06-08T20:58:37.020Z,25.80
2019-06-08T21:01:03.461Z,25.80
2019-06-08T21:03:30.310Z,29.50
2019-06-08T21:05:58.256Z,27.80
2019-06-08T21:08:25.320Z,26.90
2019-06-08T21:10:54.112Z,27.90
2019-06-08T21:13:21.480Z,29.10
2019-06-08T21:15:52.608Z,27.80
2019-06-08T21:18:19.131Z,31.20
2019-06-08T21:20:47.168Z,32.50
2019-06-08T21:23:14.432Z,30.00
2019-06-08T21:25:41.278Z,31.60
2019-06-08T21:28:08.734Z,28.50
2019-06-08T21:30:37.573Z,27.30
2019-06-08T21:33:04.473Z,28.10
2019-06-08T21:35:31.261Z,30.90
2019-06-08T21:38:00.818Z,30.40
2019-06-08T21:40:28.162Z,29.50
2019-06-08T21:42:59.961Z,30.10
2019-06-08T21:45:24.016Z,28.10
2019-06-08T21:47:51.748Z,30.60
2019-06-08T21:50:19.751Z,29.70
2019-06-08T21:52:48.662Z,30.00
2019-06-08T21:55:17.646Z,30.70
2019-06-08T21:57:44.006Z,30.90
2019-06-08T22:00:29.399Z,30.60
2019-06-08T22:02:40.479Z,30.50
2019-06-08T22:05:08.238Z,31.10
2019-06-08T22:07:37.544Z,31.60
2019-06-08T22:10:07.892Z,32.30
2019-06-08T22:12:37.585Z,33.70
2019-06-08T22:15:07.545Z,37.60
2019-06-08T22:17:35.191Z,37.80
2019-06-08T22:20:07.777Z,38.60
2019-06-08T22:22:33.893Z,40.50
2019-06-08T22:25:01.175Z,40.60
2019-06-08T22:27:28.207Z,43.00
2019-06-08T22:29:58.184Z,42.50
2019-06-08T22:32:24.357Z,43.20
2019-06-08T22:34:52.784Z,42.00
2019-06-08T22:37:20.206Z,45.10
2019-06-08T22:39:47.915Z,45.40
2019-06-08T22:42:17.606Z,44.50
2019-06-08T22:44:43.679Z,46.40
2019-06-08T22:47:10.910Z,47.10
2019-06-08T22:49:38.461Z,48.40
2019-06-08T22:52:07.968Z,46.30
2019-06-08T22:54:34.307Z,46.90
2019-06-08T22:57:04.641Z,47.70
2019-06-08T22:59:31.605Z,47.60
2019-06-08T23:02:01.011Z,49.40
2019-06-08T23:04:27.707Z,49.50
2019-06-08T23:06:59.181Z,49.80
2019-06-08T23:09:23.805Z,49.30
2019-06-08T23:11:51.095Z,51.00
2019-06-08T23:14:18.047Z,51.60
2019-06-08T23:16:47.221Z,52.30
2019-06-08T23:19:14.139Z,53.50
2019-06-08T23:21:40.928Z,54.00
2019-06-08T23:24:08.506Z,55.10
2019-06-08T23:26:37.233Z,54.70
2019-06-08T23:29:04.455Z,55.30
2019-06-08T23:31:31.710Z,55.80
2019-06-08T23:34:00.348Z,55.70
2019-06-08T23:36:46.963Z,55.70
2019-06-08T23:38:57.006Z,56.60
2019-06-08T23:41:23.933Z,56.80
2019-06-08T23:43:50.757Z,56.90
2019-06-08T23:46:18.232Z,56.90
2019-06-08T23:48:48.150Z,57.00
2019-06-08T23:51:14.254Z,57.10
2019-06-08T23:53:41.152Z,57.10
2019-06-08T23:56:11.354Z,57.30
2019-06-08T23:58:37.196Z,57.20
